Vremea acum in Codlea - Romania

Vrei sa afli care e starea vremii acum in Brasov - Romania? Dorim sa iti furnizam starea vremii pentru Brasov - Romania. Starea vremii Brasov - Romania pentru astazi.

Vremea acum in Codlea

Temperatura: 7.1 °C

Este: Senin
Se simte ca: 6.9 °C
Innorat: 10 %
Precipitatii: 0 %
Presiune atmosferica: 1018 hPa
Umiditate: 89%
Vizibilitate: 10 km
Vantul bate din SW cu 4 km/h

Evolutia vremii in Codlea pe ore

Ora: 04:00
Senin
Temperatura: 6.8°C
Sansa de precipitatii: 0%
Ora Descriere Temp Se simte Precipitatii Umiditate Vant
00:00Thundery outbreaks in nearby7.8°7.5°0%88%SW 4.3 KM/H
01:00Senin8.7°8.6°0%87%SW 4 KM/H
02:00Senin7.4°7.4°0%89%SW 3.6 KM/H
03:00Senin7.1°6.9°0%89%SW 4 KM/H
04:00Senin6.8°6.6°0%90%SW 4 KM/H
05:00Senin6.6°6.6°0%90%SW 3.2 KM/H
06:00Senin6.4°6.4°0%91%SSW 2.9 KM/H
07:00Senin7.6°7.6°0%90%SSW 2.5 KM/H
08:00Senin10°10.1°0%84%E 0.4 KM/H
09:00Patchy rain nearby12.2°12.2°79%76%N 2.2 KM/H
10:00Patchy rain nearby14.3°15.1°84%66%N 3.2 KM/H
11:00Senin16.3°16.3°0%55%N 4 KM/H
12:00Senin17.8°17.8°0%48%N 4.7 KM/H
13:00Patchy rain nearby18.6°18.6°71%42%NNE 5.4 KM/H
14:00Patchy rain nearby18.7°18.7°100%41%NE 4.7 KM/H
15:00Patchy rain nearby19°19°84%40%ENE 4 KM/H
16:00Patchy rain nearby19.2°19.2°100%40%SE 2.9 KM/H
17:00Patchy rain nearby18.9°18.9°76%40%S 4 KM/H
18:00Senin18.3°18.3°0%43%SSW 5 KM/H
19:00Patchy rain nearby16°16°100%64%E 5.4 KM/H
20:00Patchy rain nearby11.8°11.3°100%83%SE 7.2 KM/H
21:00Senin10.2°9.8°0%88%SSE 5.4 KM/H
22:00Senin9.3°9.2°0%89%SSE 4.3 KM/H
23:00Senin8.8°8.2°0%88%S 5.8 KM/H




tutorials